Time;durP1;ratioP1;P1;durP2;ratioP2;P2;SDS_P1;SDS_P2;PMS_P1;PMS_P2;Temp;Humidity;BMP_temperature;BMP_pressure;BME280_temperature;BME280_humidity;BME280_pressure;Samples;Min_cycle;Max_cycle;Signal;HPM_P1;HPM_P2
2021/12/07 01:26:12;;;;;;;0.60;0.60;;;4.70;99.90;;;;;;5018381;28;20235;-62
2021/12/07 01:28:42;;;;;;;0.60;0.60;;;4.80;99.90;;;;;;5014034;28;20214;-62
2021/12/07 01:31:16;;;;;;;0.50;0.50;;;4.80;99.90;;;;;;5008006;28;20210;-62
2021/12/07 01:34:04;;;;;;;0.53;0.53;;;4.90;99.90;;;;;;5039597;23;20253;-65
2021/12/07 01:36:50;;;;;;;0.50;0.50;;;4.90;99.90;;;;;;5019380;28;20250;-65
2021/12/07 01:39:54;;;;;;;0.50;0.50;;;4.90;99.90;;;;;;5016034;28;20208;-66
2021/12/07 01:48:00;;;;;;;0.60;0.60;;;5.00;99.90;;;;;;5020889;28;20216;-67
2021/12/07 01:50:41;;;;;;;0.60;0.60;;;5.00;99.90;;;;;;5023692;28;20204;-65
2021/12/07 01:53:19;;;;;;;0.70;0.70;;;5.00;99.90;;;;;;5016921;28;20267;-66
2021/12/07 02:01:24;;;;;;;0.67;0.67;;;5.10;99.90;;;;;;4983651;28;20671;-66
2021/12/07 02:03:51;;;;;;;0.50;0.50;;;5.10;99.90;;;;;;5019036;28;20678;-67
2021/12/07 02:06:18;;;;;;;0.53;0.53;;;5.10;99.90;;;;;;5024456;28;20237;-66
2021/12/07 02:08:45;;;;;;;0.60;0.60;;;5.20;99.90;;;;;;5017533;28;20312;-65
2021/12/07 02:11:13;;;;;;;0.40;0.40;;;5.20;99.90;;;;;;5029641;28;20229;-67
2021/12/07 02:16:28;;;;;;;0.40;0.40;;;5.40;99.90;;;;;;5022709;28;20252;-67
2021/12/07 02:18:55;;;;;;;0.40;0.40;;;5.40;99.90;;;;;;5024641;28;20988;-67
2021/12/07 02:21:26;;;;;;;0.43;0.43;;;5.50;99.90;;;;;;5026050;28;20293;-65
2021/12/07 02:23:54;;;;;;;0.40;0.40;;;5.50;99.90;;;;;;5018871;28;20232;-66
2021/12/07 02:26:21;;;;;;;0.40;0.40;;;5.50;99.90;;;;;;5022879;28;20205;-66
2021/12/07 02:28:52;;;;;;;0.50;0.50;;;5.60;99.90;;;;;;5025319;28;20217;-66
2021/12/07 02:31:19;;;;;;;0.40;0.40;;;5.60;99.90;;;;;;5025697;28;20200;-66
2021/12/07 02:33:47;;;;;;;0.40;0.40;;;5.60;99.90;;;;;;5024540;28;20233;-66
2021/12/07 02:36:13;;;;;;;0.40;0.40;;;5.50;99.90;;;;;;5022897;28;20212;-67
2021/12/07 02:38:42;;;;;;;0.47;0.47;;;5.60;99.90;;;;;;5029950;28;20288;-67
2021/12/07 02:41:09;;;;;;;0.37;0.37;;;5.60;99.90;;;;;;5029457;28;20208;-65
2021/12/07 02:43:36;;;;;;;0.40;0.40;;;5.60;99.90;;;;;;5028868;28;20235;-66
2021/12/07 02:46:03;;;;;;;0.50;0.50;;;5.60;99.90;;;;;;5023167;28;20240;-66
2021/12/07 02:48:31;;;;;;;0.40;0.40;;;5.70;99.90;;;;;;5009757;28;20213;-66
2021/12/07 02:50:58;;;;;;;0.50;0.50;;;5.70;99.90;;;;;;5014793;28;20296;-67
2021/12/07 02:53:27;;;;;;;0.40;0.40;;;5.80;99.90;;;;;;5014172;28;20236;-67
2021/12/07 02:55:56;;;;;;;0.60;0.60;;;5.70;99.90;;;;;;5010631;28;20292;-66
2021/12/07 02:58:26;;;;;;;0.50;0.50;;;5.80;99.90;;;;;;5018897;28;20228;-67
2021/12/07 03:01:00;;;;;;;0.50;0.50;;;5.80;99.90;;;;;;5026985;28;20237;-66
2021/12/07 03:03:30;;;;;;;0.50;0.50;;;5.80;99.90;;;;;;5029093;28;20222;-67
2021/12/07 03:06:07;;;;;;;0.40;0.40;;;5.70;99.90;;;;;;5033088;28;20216;-66
2021/12/07 03:27:55;;;;;;;0.50;0.50;;;5.60;99.90;;;;;;5030458;28;20204;-67
2021/12/07 03:30:24;;;;;;;0.60;0.60;;;5.60;99.90;;;;;;5026463;28;20296;-67
2021/12/07 03:32:51;;;;;;;0.60;0.60;;;5.60;99.90;;;;;;5023500;28;20268;-65
2021/12/07 03:35:18;;;;;;;0.60;0.60;;;5.60;99.90;;;;;;5026421;28;20659;-67
2021/12/07 03:37:45;;;;;;;0.50;0.50;;;5.60;99.90;;;;;;5027039;28;20292;-66
2021/12/07 03:40:14;;;;;;;0.50;0.50;;;5.70;99.90;;;;;;5019570;28;20239;-66
2021/12/07 03:42:42;;;;;;;0.50;0.50;;;5.70;99.90;;;;;;5029584;28;20235;-67
2021/12/07 03:45:11;;;;;;;0.50;0.50;;;5.70;99.90;;;;;;5033603;28;20339;-66
2021/12/07 03:47:39;;;;;;;0.40;0.40;;;5.80;99.90;;;;;;5026985;28;20205;-67
2021/12/07 03:50:09;;;;;;;0.40;0.40;;;5.80;99.90;;;;;;5038297;28;20252;-67
2021/12/07 03:52:36;;;;;;;0.50;0.50;;;5.80;99.90;;;;;;5018584;28;20260;-67
2021/12/07 03:55:05;;;;;;;0.70;0.70;;;5.90;99.90;;;;;;5026504;28;20316;-66
2021/12/07 03:57:32;;;;;;;0.60;0.60;;;5.80;99.90;;;;;;5024417;28;20295;-65
2021/12/07 04:00:00;;;;;;;0.60;0.60;;;5.80;99.90;;;;;;5006031;28;20705;-66
2021/12/07 04:02:29;;;;;;;0.50;0.50;;;5.90;99.90;;;;;;5023291;28;20224;-66
2021/12/07 04:05:01;;;;;;;0.50;0.50;;;5.80;99.90;;;;;;5019367;28;20286;-67
2021/12/07 04:07:28;;;;;;;0.47;0.40;;;5.90;99.90;;;;;;5026164;28;20204;-68
2021/12/07 04:09:55;;;;;;;0.50;0.50;;;5.90;99.90;;;;;;5026303;28;20316;-66
2021/12/07 04:12:22;;;;;;;0.50;0.50;;;5.90;99.90;;;;;;5023665;28;20290;-67
2021/12/07 04:14:49;;;;;;;0.80;0.80;;;5.90;99.90;;;;;;5020313;28;20268;-64
2021/12/07 04:17:18;;;;;;;0.60;0.60;;;5.90;99.90;;;;;;5022477;28;20232;-66
2021/12/07 04:19:46;;;;;;;0.70;0.70;;;5.90;99.90;;;;;;5026431;28;20284;-66
2021/12/07 04:22:13;;;;;;;0.57;0.57;;;5.90;99.90;;;;;;5024252;28;20256;-66
2021/12/07 04:24:40;;;;;;;0.60;0.60;;;5.90;99.90;;;;;;5022881;28;20455;-67
2021/12/07 04:27:07;;;;;;;0.50;0.50;;;5.90;99.90;;;;;;5024198;28;20576;-65
2021/12/07 04:29:34;;;;;;;0.77;0.77;;;5.90;99.90;;;;;;5027708;28;20305;-66
2021/12/07 04:32:01;;;;;;;0.50;0.50;;;5.90;99.90;;;;;;5023154;28;20208;-66
2021/12/07 04:34:28;;;;;;;0.50;0.50;;;5.90;99.90;;;;;;5023936;28;20303;-67
2021/12/07 04:36:56;;;;;;;0.67;0.67;;;5.90;99.90;;;;;;5020779;28;20669;-65
2021/12/07 04:39:23;;;;;;;0.60;0.60;;;5.90;99.90;;;;;;5012808;28;20281;-66
2021/12/07 04:41:52;;;;;;;0.60;0.60;;;5.90;99.90;;;;;;5018984;28;20205;-66
2021/12/07 04:44:21;;;;;;;0.53;0.53;;;5.90;99.90;;;;;;5018109;28;20668;-66
2021/12/07 04:46:59;;;;;;;0.50;0.50;;;5.90;99.90;;;;;;5028236;28;20213;-67
2021/12/07 04:57:54;;;;;;;0.77;0.77;;;6.00;99.90;;;;;;4948551;29;20199;-66
2021/12/07 05:00:25;;;;;;;0.73;0.60;;;6.10;99.90;;;;;;4951675;29;20286;-66
2021/12/07 05:02:56;;;;;;;0.80;0.80;;;6.10;99.90;;;;;;4978347;28;20246;-67
2021/12/07 05:05:26;;;;;;;0.80;0.80;;;6.10;99.90;;;;;;5027754;28;20240;-66
2021/12/07 05:07:57;;;;;;;0.67;0.67;;;6.20;99.90;;;;;;5038765;28;20209;-67
2021/12/07 05:10:30;;;;;;;0.73;0.73;;;6.20;99.90;;;;;;5034488;28;20236;-66
2021/12/07 05:18:52;;;;;;;0.60;0.60;;;6.20;99.90;;;;;;5011470;28;20563;-65
2021/12/07 05:24:09;;;;;;;0.60;0.60;;;6.30;99.90;;;;;;5013656;28;20593;-65
2021/12/07 05:37:48;;;;;;;0.70;0.70;;;5.80;99.90;;;;;;5040103;28;20220;-66
2021/12/07 05:40:21;;;;;;;0.60;0.60;;;5.60;99.90;;;;;;5036742;28;20197;-66
2021/12/07 05:42:49;;;;;;;0.63;0.63;;;5.60;99.90;;;;;;5037842;28;20260;-65
2021/12/07 05:45:19;;;;;;;0.80;0.80;;;5.60;99.90;;;;;;5033621;28;20311;-66
2021/12/07 05:47:46;;;;;;;0.60;0.60;;;5.60;99.90;;;;;;5026899;28;20287;-66
2021/12/07 05:50:16;;;;;;;0.80;0.80;;;5.70;99.90;;;;;;5024481;28;20671;-65
2021/12/07 05:52:43;;;;;;;0.63;0.63;;;5.80;99.90;;;;;;5025094;28;20218;-65
2021/12/07 05:55:11;;;;;;;0.80;0.80;;;5.90;99.90;;;;;;5027197;28;20211;-66
2021/12/07 05:57:40;;;;;;;0.73;0.73;;;6.00;99.90;;;;;;5024084;28;20292;-66
2021/12/07 06:00:10;;;;;;;0.60;0.60;;;6.00;99.90;;;;;;5033451;28;20220;-66
2021/12/07 06:02:37;;;;;;;0.60;0.60;;;6.10;99.90;;;;;;5030937;28;20225;-65
2021/12/07 06:05:04;;;;;;;0.77;0.77;;;6.10;99.90;;;;;;5020013;28;20273;-67
2021/12/07 06:07:31;;;;;;;0.70;0.70;;;6.10;99.90;;;;;;5025842;28;20307;-67
2021/12/07 06:09:58;;;;;;;0.80;0.80;;;6.20;99.90;;;;;;5011746;28;20769;-65
2021/12/07 06:12:26;;;;;;;0.70;0.70;;;6.20;99.90;;;;;;5015433;28;20221;-66
2021/12/07 06:14:55;;;;;;;0.60;0.60;;;6.20;99.90;;;;;;5021112;28;20755;-66
2021/12/07 06:17:23;;;;;;;0.50;0.50;;;6.20;99.90;;;;;;5015965;28;20205;-66
2021/12/07 06:19:50;;;;;;;0.73;0.73;;;6.20;99.90;;;;;;5025734;28;20734;-65
2021/12/07 06:22:17;;;;;;;0.63;0.63;;;6.40;99.90;;;;;;5007332;28;20225;-65
2021/12/07 06:24:44;;;;;;;0.70;0.70;;;6.10;99.90;;;;;;5028450;28;20214;-66
2021/12/07 06:27:11;;;;;;;0.70;0.70;;;6.20;99.90;;;;;;5023551;28;20670;-66
2021/12/07 06:29:38;;;;;;;0.70;0.70;;;6.10;99.90;;;;;;5027345;28;20218;-66
2021/12/07 06:32:07;;;;;;;1.90;0.80;;;6.10;99.90;;;;;;5009299;28;20252;-67
2021/12/07 06:34:34;;;;;;;0.80;0.80;;;6.20;99.90;;;;;;5000749;28;20586;-66
2021/12/07 06:37:02;;;;;;;0.67;0.67;;;6.20;99.90;;;;;;5001855;28;20213;-67
2021/12/07 06:39:30;;;;;;;0.70;0.70;;;6.20;99.90;;;;;;5008952;28;20201;-66
2021/12/07 06:41:57;;;;;;;0.70;0.70;;;6.20;99.90;;;;;;5012837;28;20215;-66
2021/12/07 06:44:24;;;;;;;0.63;0.63;;;6.30;99.90;;;;;;5006550;28;20290;-67
2021/12/07 06:46:51;;;;;;;0.67;0.67;;;6.20;99.90;;;;;;5016190;28;20273;-65
2021/12/07 06:49:20;;;;;;;0.70;0.70;;;6.20;99.90;;;;;;5040163;28;20225;-65
2021/12/07 06:51:48;;;;;;;0.70;0.70;;;6.20;99.90;;;;;;5031639;28;20239;-66
2021/12/07 06:54:16;;;;;;;0.87;0.87;;;6.30;99.90;;;;;;5026647;28;20626;-65
2021/12/07 06:56:43;;;;;;;0.70;0.70;;;6.30;99.90;;;;;;5015932;28;20197;-66
2021/12/07 06:59:10;;;;;;;0.83;0.83;;;6.20;99.90;;;;;;5024191;28;20229;-67
2021/12/07 07:01:38;;;;;;;1.23;1.10;;;6.30;99.90;;;;;;5017086;28;20292;-66
2021/12/07 07:04:07;;;;;;;0.87;0.87;;;6.30;99.90;;;;;;5005667;28;20249;-66
2021/12/07 07:06:36;;;;;;;0.80;0.80;;;6.30;99.90;;;;;;5009576;28;20630;-65
2021/12/07 07:09:03;;;;;;;0.90;0.90;;;6.30;99.90;;;;;;5008256;28;20293;-66
2021/12/07 07:11:30;;;;;;;0.80;0.80;;;6.40;99.90;;;;;;5003413;28;20241;-65
2021/12/07 07:13:57;;;;;;;1.00;1.00;;;6.40;99.90;;;;;;5012525;28;20786;-66
2021/12/07 07:16:24;;;;;;;0.90;0.90;;;6.40;99.90;;;;;;5005269;28;20286;-66
2021/12/07 07:18:51;;;;;;;0.90;0.90;;;6.30;99.90;;;;;;5005086;28;20208;-67
2021/12/07 07:21:18;;;;;;;0.67;0.67;;;6.40;99.90;;;;;;5003867;28;20208;-66
2021/12/07 07:23:47;;;;;;;1.00;1.00;;;6.30;99.90;;;;;;5005028;28;20226;-65
2021/12/07 07:26:14;;;;;;;0.70;0.70;;;6.40;99.90;;;;;;5023397;28;20284;-65
2021/12/07 07:28:41;;;;;;;0.87;0.87;;;6.40;99.90;;;;;;5025859;28;20288;-66
2021/12/07 07:31:10;;;;;;;0.93;0.93;;;6.50;99.90;;;;;;5019455;28;20225;-67
2021/12/07 07:33:37;;;;;;;0.80;0.80;;;6.50;99.90;;;;;;5022250;23;20313;-62
2021/12/07 07:36:05;;;;;;;0.90;0.90;;;6.50;99.90;;;;;;5056403;28;20196;-63
2021/12/07 07:38:32;;;;;;;0.70;0.70;;;6.50;99.90;;;;;;5054487;28;20227;-62
2021/12/07 07:41:00;;;;;;;0.87;0.80;;;6.50;99.90;;;;;;5057084;28;20283;-63
2021/12/07 07:43:29;;;;;;;0.80;0.80;;;6.50;99.90;;;;;;5063004;28;20314;-62
2021/12/07 07:45:56;;;;;;;1.10;1.10;;;6.50;99.90;;;;;;5057613;28;20212;-65
2021/12/07 07:48:24;;;;;;;0.90;0.90;;;6.50;99.90;;;;;;5063077;28;20295;-62
2021/12/07 07:50:51;;;;;;;0.97;0.87;;;6.50;99.90;;;;;;5054125;28;20765;-65
2021/12/07 07:53:19;;;;;;;0.90;0.90;;;6.50;99.90;;;;;;5055192;28;20219;-62
2021/12/07 07:55:46;;;;;;;0.70;0.70;;;6.50;99.90;;;;;;5061026;28;20232;-63
2021/12/07 07:58:14;;;;;;;0.80;0.80;;;6.50;99.90;;;;;;5047924;28;20207;-63
2021/12/07 08:00:43;;;;;;;1.00;1.00;;;6.60;99.90;;;;;;5048524;28;20230;-63
2021/12/07 08:03:10;;;;;;;0.90;0.90;;;6.50;99.90;;;;;;5039342;28;20228;-62
2021/12/07 08:05:38;;;;;;;0.90;0.90;;;6.50;99.90;;;;;;5050643;28;20287;-62
2021/12/07 08:08:05;;;;;;;0.80;0.80;;;6.60;99.90;;;;;;5060814;28;20208;-63
2021/12/07 08:10:33;;;;;;;0.70;0.70;;;6.60;99.90;;;;;;5057699;28;20243;-65
2021/12/07 08:13:05;;;;;;;1.00;0.83;;;6.60;99.90;;;;;;5057340;28;20641;-62
2021/12/07 08:15:36;;;;;;;0.70;0.70;;;6.60;99.90;;;;;;5067314;28;20199;-64
2021/12/07 08:18:04;;;;;;;1.03;0.93;;;6.60;99.90;;;;;;5065291;28;20238;-62
2021/12/07 08:20:31;;;;;;;0.90;0.90;;;6.70;99.90;;;;;;5071232;28;20643;-62
2021/12/07 08:22:58;;;;;;;0.93;0.93;;;6.50;99.90;;;;;;5065846;28;20310;-63
2021/12/07 08:25:25;;;;;;;0.90;0.90;;;6.50;99.90;;;;;;5066614;28;20207;-62
2021/12/07 08:27:52;;;;;;;0.90;0.90;;;6.60;99.90;;;;;;5061435;28;20207;-63
2021/12/07 08:30:18;;;;;;;0.80;0.80;;;6.60;99.90;;;;;;5059792;28;20290;-62
2021/12/07 08:32:47;;;;;;;0.70;0.70;;;6.60;99.90;;;;;;5065983;28;20211;-62
2021/12/07 08:35:14;;;;;;;0.90;0.90;;;6.60;99.90;;;;;;5062460;28;20208;-63
2021/12/07 08:37:44;;;;;;;0.90;0.90;;;6.60;99.90;;;;;;5057633;28;20224;-62
2021/12/07 08:40:12;;;;;;;0.97;0.97;;;6.70;99.90;;;;;;5066491;28;20282;-63
2021/12/07 08:42:39;;;;;;;1.00;1.00;;;6.70;99.90;;;;;;5068135;28;20242;-61
2021/12/07 08:45:07;;;;;;;0.70;0.70;;;6.70;99.90;;;;;;5058677;28;20290;-61
2021/12/07 08:47:35;;;;;;;0.80;0.80;;;6.80;99.90;;;;;;5069177;28;20199;-64
2021/12/07 08:50:05;;;;;;;0.73;0.73;;;6.70;99.90;;;;;;5062719;28;20267;-62
2021/12/07 08:52:32;;;;;;;0.90;0.90;;;6.80;99.90;;;;;;5076274;28;20203;-62
2021/12/07 09:00:30;;;;;;;0.83;0.83;;;6.90;99.90;;;;;;5053594;28;20202;-63
2021/12/07 09:02:58;;;;;;;0.90;0.90;;;6.90;99.90;;;;;;5057221;28;20330;-63
2021/12/07 09:05:26;;;;;;;0.80;0.80;;;7.00;99.90;;;;;;5066503;28;20662;-62
2021/12/07 09:07:53;;;;;;;0.90;0.90;;;7.00;99.90;;;;;;5059603;28;20360;-62
2021/12/07 09:10:20;;;;;;;0.90;0.83;;;7.00;99.90;;;;;;5064683;28;20227;-62
2021/12/07 09:12:49;;;;;;;0.90;0.90;;;7.00;99.90;;;;;;5060181;28;20304;-61
2021/12/07 09:15:16;;;;;;;0.60;0.60;;;7.00;99.90;;;;;;5059760;28;20295;-62
2021/12/07 09:17:43;;;;;;;0.70;0.70;;;7.00;99.90;;;;;;5041338;28;20280;-62
2021/12/07 09:20:15;;;;;;;0.90;0.90;;;7.00;99.90;;;;;;5040245;28;20287;-62
2021/12/07 09:22:45;;;;;;;0.90;0.90;;;7.10;99.90;;;;;;5043586;28;20235;-62
2021/12/07 09:25:13;;;;;;;0.80;0.80;;;7.20;99.90;;;;;;5041946;28;20644;-64
2021/12/07 09:27:40;;;;;;;0.80;0.80;;;7.20;99.90;;;;;;5040345;28;20232;-62
2021/12/07 09:30:09;;;;;;;1.07;0.97;;;7.20;99.90;;;;;;5040185;28;20224;-62
2021/12/07 09:32:36;;;;;;;1.00;1.00;;;7.20;99.90;;;;;;5044413;28;20235;-62
2021/12/07 09:35:04;;;;;;;0.73;0.73;;;7.30;99.90;;;;;;5050049;28;20217;-62
2021/12/07 09:37:31;;;;;;;0.80;0.80;;;7.20;99.90;;;;;;5041006;28;20208;-63
2021/12/07 09:40:00;;;;;;;0.70;0.70;;;7.30;99.90;;;;;;5036882;28;20873;-63
2021/12/07 09:42:27;;;;;;;0.80;0.80;;;7.50;99.90;;;;;;5038237;28;20236;-62
2021/12/07 09:44:54;;;;;;;0.90;0.90;;;7.60;99.90;;;;;;5036506;28;20342;-62
2021/12/07 09:47:21;;;;;;;0.80;0.80;;;7.60;99.90;;;;;;5036040;28;20681;-63
2021/12/07 09:49:48;;;;;;;0.80;0.80;;;7.50;99.90;;;;;;5038355;28;20267;-62
2021/12/07 09:52:15;;;;;;;0.70;0.70;;;7.50;99.90;;;;;;5041262;28;20271;-62
2021/12/07 09:54:42;;;;;;;0.80;0.80;;;7.60;99.90;;;;;;5041077;28;20719;-63
2021/12/07 09:57:11;;;;;;;0.90;0.90;;;7.50;99.90;;;;;;5055604;28;20288;-62
2021/12/07 09:59:38;;;;;;;0.70;0.70;;;7.50;99.90;;;;;;5054507;28;20215;-61
2021/12/07 10:02:07;;;;;;;0.77;0.77;;;7.40;99.90;;;;;;5048168;28;20281;-62
2021/12/07 10:04:35;;;;;;;0.90;0.90;;;7.40;99.90;;;;;;5044316;28;20247;-63
2021/12/07 10:07:02;;;;;;;1.00;1.00;;;7.40;99.90;;;;;;5048766;28;20200;-64
2021/12/07 10:09:29;;;;;;;0.60;0.60;;;7.40;99.90;;;;;;5044565;28;20296;-61
2021/12/07 10:11:57;;;;;;;0.70;0.70;;;7.40;99.90;;;;;;5050335;28;20259;-62
2021/12/07 10:14:37;;;;;;;0.70;0.70;;;7.40;99.90;;;;;;5040518;28;20311;-63
2021/12/07 10:17:04;;;;;;;0.70;0.70;;;7.40;99.90;;;;;;5041560;28;20196;-63
2021/12/07 10:19:34;;;;;;;0.93;0.90;;;7.40;99.90;;;;;;5032807;28;20200;-61
2021/12/07 10:22:04;;;;;;;0.90;0.90;;;7.50;99.90;;;;;;5035324;28;20192;-63
2021/12/07 10:24:38;;;;;;;1.10;1.00;;;7.50;99.90;;;;;;5038456;28;20220;-64
2021/12/07 10:27:06;;;;;;;0.60;0.60;;;7.50;99.90;;;;;;5037439;28;20250;-63
2021/12/07 10:29:36;;;;;;;0.60;0.60;;;7.50;99.90;;;;;;5037600;28;20202;-63
2021/12/07 10:32:07;;;;;;;0.90;0.90;;;7.50;99.90;;;;;;5039390;28;20685;-63
2021/12/07 10:34:36;;;;;;;0.77;0.77;;;7.50;99.90;;;;;;5041380;28;20250;-63
2021/12/07 10:37:09;;;;;;;0.50;0.50;;;7.50;99.90;;;;;;5044041;28;20207;-61
2021/12/07 10:39:38;;;;;;;0.77;0.77;;;7.60;99.90;;;;;;5044941;28;20200;-62
2021/12/07 10:42:07;;;;;;;0.70;0.70;;;7.60;99.90;;;;;;5040376;28;20290;-62
2021/12/07 10:44:38;;;;;;;0.80;0.77;;;7.60;99.90;;;;;;5040572;28;20224;-63
2021/12/07 10:47:07;;;;;;;0.70;0.70;;;7.60;99.90;;;;;;5040451;28;20288;-63
2021/12/07 10:49:42;;;;;;;0.83;0.83;;;7.60;99.90;;;;;;5046385;28;20290;-63
2021/12/07 10:52:13;;;;;;;0.60;0.60;;;7.70;99.90;;;;;;5040186;28;20212;-63
2021/12/07 10:54:44;;;;;;;0.90;0.90;;;7.90;99.90;;;;;;5044275;28;20220;-61
2021/12/07 10:57:14;;;;;;;0.90;0.90;;;8.10;99.90;;;;;;5045048;28;20279;-63
2021/12/07 10:59:51;;;;;;;0.90;0.90;;;8.20;99.90;;;;;;5047687;28;20283;-62
2021/12/07 11:02:19;;;;;;;0.87;0.87;;;8.40;99.90;;;;;;5047458;28;20667;-62
2021/12/07 11:04:49;;;;;;;1.80;1.70;;;8.50;99.90;;;;;;5045980;28;20489;-62
2021/12/07 11:07:19;;;;;;;0.90;0.90;;;8.70;99.90;;;;;;5047912;28;20211;-64
2021/12/07 11:10:05;;;;;;;0.80;0.80;;;8.60;99.90;;;;;;5046378;28;20358;-63
2021/12/07 11:12:40;;;;;;;0.73;0.73;;;8.70;99.90;;;;;;5042563;28;20200;-61
2021/12/07 11:15:20;;;;;;;1.00;1.00;;;8.70;99.90;;;;;;5039341;28;20228;-62
2021/12/07 11:17:48;;;;;;;0.90;0.90;;;8.70;99.90;;;;;;5051125;28;20211;-61
2021/12/07 11:20:15;;;;;;;0.87;0.87;;;8.80;99.90;;;;;;5048538;28;20200;-62
2021/12/07 11:22:46;;;;;;;0.70;0.70;;;8.80;99.90;;;;;;5047943;28;20243;-64
2021/12/07 11:25:53;;;;;;;0.87;0.87;;;8.80;99.90;;;;;;5052657;28;20197;-62
2021/12/07 11:31:29;;;;;;;0.80;0.80;;;8.80;99.90;;;;;;5049081;28;20282;-62
2021/12/07 11:34:06;;;;;;;1.20;1.10;;;8.70;99.90;;;;;;5049176;28;20251;-62
2021/12/07 11:36:38;;;;;;;0.80;0.80;;;8.70;99.90;;;;;;5043318;28;20219;-62
2021/12/07 11:39:21;;;;;;;0.80;0.80;;;8.50;99.90;;;;;;5048691;28;20237;-62
2021/12/07 11:41:49;;;;;;;0.80;0.80;;;8.40;99.90;;;;;;5046498;28;20196;-65
2021/12/07 11:44:17;;;;;;;0.90;0.90;;;8.40;99.90;;;;;;5050314;28;20661;-62
2021/12/07 11:46:49;;;;;;;0.70;0.70;;;8.40;99.90;;;;;;5050220;28;20235;-62
2021/12/07 11:49:18;;;;;;;0.93;0.90;;;8.50;99.90;;;;;;5056513;28;20290;-62
2021/12/07 11:51:47;;;;;;;0.90;0.90;;;8.50;99.90;;;;;;5049529;28;20717;-62
2021/12/07 11:54:16;;;;;;;0.77;0.77;;;8.40;99.90;;;;;;5044436;28;20607;-62
2021/12/07 11:56:45;;;;;;;0.70;0.70;;;8.40;99.90;;;;;;5051991;28;20250;-63
2021/12/07 11:59:13;;;;;;;0.80;0.80;;;8.30;99.90;;;;;;5056113;28;20204;-61
2021/12/07 12:01:41;;;;;;;0.70;0.70;;;8.40;99.90;;;;;;5043173;28;20197;-62
2021/12/07 12:04:10;;;;;;;0.90;0.90;;;8.40;99.90;;;;;;5047083;28;20255;-62
2021/12/07 12:06:41;;;;;;;1.10;1.00;;;8.40;99.90;;;;;;5045933;28;20258;-62
2021/12/07 12:09:09;;;;;;;0.80;0.80;;;8.50;99.90;;;;;;5051526;28;20211;-63
2021/12/07 12:11:43;;;;;;;0.80;0.80;;;8.50;99.90;;;;;;5040095;28;20321;-64
2021/12/07 12:14:22;;;;;;;0.93;0.93;;;8.40;99.90;;;;;;5057681;28;20223;-63
2021/12/07 12:16:57;;;;;;;0.80;0.80;;;8.40;99.90;;;;;;5064632;28;20519;-62
2021/12/07 12:19:47;;;;;;;0.90;0.90;;;8.30;99.90;;;;;;5054179;28;20204;-64
2021/12/07 12:22:22;;;;;;;0.80;0.80;;;8.20;99.90;;;;;;5047870;28;20556;-62
2021/12/07 12:24:51;;;;;;;1.83;1.13;;;8.20;99.90;;;;;;5046155;28;20227;-62
2021/12/07 12:27:20;;;;;;;0.90;0.90;;;8.20;99.90;;;;;;5038438;28;20324;-62
2021/12/07 12:29:58;;;;;;;0.80;0.80;;;8.10;99.90;;;;;;5047667;28;20212;-63
2021/12/07 12:32:30;;;;;;;0.90;0.90;;;8.20;99.90;;;;;;5052556;28;20222;-61
2021/12/07 12:34:59;;;;;;;0.90;0.90;;;8.20;99.90;;;;;;5045425;28;20254;-63
2021/12/07 12:37:28;;;;;;;0.87;0.87;;;8.20;99.90;;;;;;5046860;28;20248;-60
2021/12/07 12:39:59;;;;;;;0.80;0.80;;;8.10;99.90;;;;;;5048875;28;20227;-61
2021/12/07 12:42:33;;;;;;;0.83;0.83;;;8.10;99.90;;;;;;5050884;28;20222;-62
2021/12/07 12:45:04;;;;;;;0.80;0.80;;;8.20;99.90;;;;;;5050695;28;20216;-64
2021/12/07 12:47:32;;;;;;;1.00;1.00;;;8.10;99.90;;;;;;5047516;28;20288;-63
2021/12/07 12:50:17;;;;;;;1.23;1.00;;;8.20;99.90;;;;;;5047538;28;20232;-62
2021/12/07 12:52:48;;;;;;;0.90;0.90;;;8.20;99.90;;;;;;5046459;28;20208;-63
2021/12/07 12:55:30;;;;;;;0.70;0.70;;;8.20;99.90;;;;;;5046743;28;20265;-63
2021/12/07 12:57:57;;;;;;;1.10;1.10;;;8.20;99.90;;;;;;5047741;28;20234;-64
2021/12/07 13:00:25;;;;;;;1.00;1.00;;;8.30;99.90;;;;;;5061622;28;20655;-64
2021/12/07 13:02:54;;;;;;;1.10;1.00;;;8.30;99.90;;;;;;5066498;28;20200;-64
2021/12/07 13:05:36;;;;;;;1.53;1.43;;;8.30;99.90;;;;;;5064377;28;20259;-65
2021/12/07 13:08:14;;;;;;;1.60;1.50;;;8.40;99.90;;;;;;5050634;28;20606;-63
2021/12/07 13:10:56;;;;;;;1.00;1.00;;;8.40;99.90;;;;;;5062679;28;20204;-64
2021/12/07 13:13:30;;;;;;;1.00;1.00;;;8.40;99.90;;;;;;5065266;28;20230;-64
2021/12/07 13:15:57;;;;;;;0.90;0.90;;;8.40;99.90;;;;;;5065467;28;20237;-62
2021/12/07 13:18:31;;;;;;;0.70;0.70;;;8.40;99.90;;;;;;5065743;28;20210;-64
2021/12/07 13:20:59;;;;;;;0.87;0.87;;;8.50;99.90;;;;;;5063168;28;20200;-64
2021/12/07 13:23:29;;;;;;;0.70;0.70;;;8.40;99.90;;;;;;5059203;28;20220;-64
2021/12/07 13:25:57;;;;;;;0.80;0.80;;;8.40;99.90;;;;;;5045633;28;20211;-61
2021/12/07 13:28:26;;;;;;;1.10;1.10;;;8.40;99.90;;;;;;5051184;28;20204;-62
2021/12/07 13:31:03;;;;;;;0.87;0.87;;;8.40;99.90;;;;;;5058472;28;20278;-64
2021/12/07 13:33:37;;;;;;;1.37;1.00;;;8.50;99.90;;;;;;5052438;28;20230;-62
2021/12/07 13:36:49;;;;;;;0.80;0.80;;;8.40;99.90;;;;;;5052621;28;20199;-66
2021/12/07 13:39:38;;;;;;;1.10;1.00;;;8.40;99.90;;;;;;5031771;23;20582;-68
2021/12/07 13:42:09;;;;;;;0.97;0.97;;;8.40;99.90;;;;;;5024269;28;20284;-67
2021/12/07 13:44:39;;;;;;;0.80;0.80;;;8.40;99.90;;;;;;5017823;28;20205;-67
2021/12/07 13:47:10;;;;;;;1.30;0.90;;;8.40;99.90;;;;;;5015967;28;20236;-67
2021/12/07 13:49:37;;;;;;;0.90;0.90;;;8.40;99.90;;;;;;5017539;28;20221;-66
2021/12/07 13:52:11;;;;;;;0.90;0.90;;;8.40;99.90;;;;;;5017541;28;20275;-66
2021/12/07 13:54:45;;;;;;;1.13;1.00;;;8.40;99.90;;;;;;5016080;28;20259;-66
2021/12/07 13:57:17;;;;;;;0.93;0.80;;;8.40;99.90;;;;;;5012081;28;20284;-67
2021/12/07 13:59:44;;;;;;;0.90;0.90;;;8.40;99.90;;;;;;5012947;28;20296;-66
2021/12/07 14:02:11;;;;;;;0.77;0.77;;;8.40;99.90;;;;;;5012216;28;20220;-66
2021/12/07 14:04:38;;;;;;;0.80;0.80;;;8.40;99.90;;;;;;5018985;28;20292;-65
2021/12/07 14:07:05;;;;;;;0.90;0.90;;;8.40;99.90;;;;;;5024517;28;20205;-65
2021/12/07 14:09:33;;;;;;;0.63;0.63;;;8.40;99.90;;;;;;5021818;28;20229;-66
2021/12/07 14:12:02;;;;;;;1.10;1.10;;;8.30;99.90;;;;;;5018654;28;20598;-68
2021/12/07 14:14:29;;;;;;;1.00;1.00;;;8.30;99.90;;;;;;5014811;28;20205;-66
2021/12/07 14:16:58;;;;;;;0.90;0.90;;;8.30;99.90;;;;;;5008733;28;20212;-67
2021/12/07 14:19:25;;;;;;;0.80;0.80;;;8.30;99.90;;;;;;5022363;28;20308;-66
2021/12/07 14:21:53;;;;;;;1.37;1.10;;;8.30;99.90;;;;;;5002229;28;20229;-66
2021/12/07 14:24:21;;;;;;;1.03;1.00;;;8.20;99.90;;;;;;5022691;28;20288;-67
2021/12/07 14:26:49;;;;;;;1.40;1.30;;;8.20;99.90;;;;;;5016184;28;20205;-66
2021/12/07 14:29:22;;;;;;;1.20;1.20;;;8.20;99.90;;;;;;5011323;28;20294;-66
2021/12/07 14:31:51;;;;;;;1.20;1.10;;;8.20;99.90;;;;;;5027225;28;20224;-67
2021/12/07 14:34:23;;;;;;;0.80;0.80;;;8.20;99.90;;;;;;5014407;28;20197;-67
2021/12/07 14:36:52;;;;;;;0.80;0.80;;;8.10;99.90;;;;;;5025360;28;20205;-65
2021/12/07 14:39:22;;;;;;;0.80;0.80;;;8.00;99.90;;;;;;5026351;28;20272;-68
2021/12/07 14:41:51;;;;;;;1.00;1.00;;;8.00;99.90;;;;;;5024862;28;20280;-65
2021/12/07 14:44:22;;;;;;;1.30;1.20;;;8.00;99.90;;;;;;5014935;28;20201;-68
2021/12/07 14:46:53;;;;;;;1.03;1.03;;;7.90;99.90;;;;;;5017106;28;20587;-66
2021/12/07 14:49:21;;;;;;;0.73;0.73;;;7.90;99.90;;;;;;5015822;28;20763;-66
2021/12/07 14:51:49;;;;;;;1.30;0.87;;;7.80;99.90;;;;;;5019586;28;20283;-66
2021/12/07 14:54:18;;;;;;;0.97;0.97;;;7.70;99.90;;;;;;5017650;28;20205;-66
2021/12/07 14:56:47;;;;;;;0.97;0.97;;;7.60;99.90;;;;;;5015957;28;20243;-68
2021/12/07 14:59:17;;;;;;;1.20;1.10;;;7.50;99.90;;;;;;5014594;28;20229;-67
2021/12/07 15:01:47;;;;;;;1.07;1.03;;;7.40;99.90;;;;;;5017925;28;20211;-67
2021/12/07 15:04:16;;;;;;;0.77;0.77;;;7.30;99.90;;;;;;5016588;28;20300;-67
2021/12/07 15:06:47;;;;;;;0.80;0.80;;;7.20;99.90;;;;;;5015491;28;20208;-67
2021/12/07 15:09:15;;;;;;;0.90;0.90;;;7.10;99.90;;;;;;5013563;28;20220;-67
2021/12/07 15:11:44;;;;;;;2.10;1.00;;;7.00;99.90;;;;;;5024787;28;20248;-67
2021/12/07 15:14:15;;;;;;;1.33;1.00;;;6.90;99.90;;;;;;5014776;28;20209;-67
2021/12/07 15:16:43;;;;;;;1.10;1.00;;;6.70;99.90;;;;;;5016032;28;20313;-68
2021/12/07 15:19:12;;;;;;;1.20;1.10;;;6.60;99.90;;;;;;5014156;28;20248;-67
2021/12/07 15:21:39;;;;;;;1.03;1.03;;;6.50;99.90;;;;;;5013865;28;20230;-68
2021/12/07 15:24:09;;;;;;;1.00;1.00;;;6.40;99.90;;;;;;5011937;28;20204;-67
2021/12/07 15:26:36;;;;;;;1.47;1.27;;;6.30;99.90;;;;;;5018302;28;20285;-66
2021/12/07 15:29:09;;;;;;;1.10;1.10;;;6.20;99.90;;;;;;5023653;28;20282;-67
2021/12/07 15:31:39;;;;;;;1.10;1.10;;;6.20;99.90;;;;;;5019287;28;20205;-67
2021/12/07 15:34:07;;;;;;;1.00;1.00;;;6.10;99.90;;;;;;5018442;28;20220;-68
2021/12/07 15:36:40;;;;;;;1.00;1.00;;;6.00;99.90;;;;;;5016049;28;20640;-68
2021/12/07 15:39:18;;;;;;;1.10;1.10;;;5.90;99.90;;;;;;5015123;28;20322;-66
2021/12/07 15:41:48;;;;;;;0.90;0.90;;;5.80;99.90;;;;;;5014173;28;20630;-66
2021/12/07 15:44:16;;;;;;;0.90;0.90;;;5.90;99.90;;;;;;5010049;28;20205;-66
2021/12/07 15:46:49;;;;;;;1.10;1.10;;;5.80;99.90;;;;;;5017154;28;20272;-66